Terminal Aerodrome Forecast
Issued by NWS

Home | Current Version | Previous Version | Text Only | Print | Product List | Glossary On
Versions: 1 2 3 4 5 6 7 8 9 10 11 12 13
000
FTUS44 KJAN 300528
TAFGTR
TAF
KGTR 300528Z 3006/3106 13006KT P6SM SCT040 BKN080
     FM301000 14005KT P6SM SCT006 BKN015
     FM301500 10006KT P6SM SCT025 BKN035
     FM301800 09007KT P6SM VCTS SCT050CB SCT080=

USA.gov is the U.S. government's official web portal to all federal, state and local government web resources and services.